NY Terminal Aviation Weather Discussion (AFD) - Prepared: 359 PM EDT SUN AUG 30 2015
A WEAK TROUGH OF LOW PRESSURE WILL CROSS THE TRI-STATE THIS 
AFTERNOON AND EVENING...THEN STALL OUT SOUTH OF LONG ISLAND INTO 
MONDAY.

VFR THROUGH THE TAF PERIOD.

SEABREEZES THROUGH ALL TERMINALS EXCEPT KSWF AND KHPN. ISOLATED 
GUSTS TO AROUND 15-20 KT POSSIBLE AT NYC METRO TERMINALS LATE THIS 
AFTERNOON AS WELL.

WINDS BECOME SW AT UNDER 10 KT AT CITY TERMINALS TONIGHT AND LIGHT 
AND VARIABLE ELSEWHERE. WSW-WNW WINDS AT AROUND 10 KT DEVELOP BY
LATE MONDAY MORNING- EARLY MONDAY AFTERNOON. WIND SPEEDS COULD
INCREASE TO AROUND 15 KT AT KJFK TOWARDS THE END OF THE TAF
PERIOD.

AN ISOLATED SHOWER OR THUNDERSTORM CANNOT BE RULED OUT THE LOWER 
HUDSON VALLEY THIS AFTERNOON/EARLY THIS EVENING. HAVE INCLUDED A 
VCSH AT KSWF AND KHPN TO REFLECT.

5 Day General Aviation Outlook:

.OUTLOOK FOR 18Z MONDAY THROUGH FRIDAY...
.MONDAY AFTERNOON...VFR. WSW-W WINDS G15-20KT POSSIBLE. 
.MONDAY NIGHT-WEDNESDAY NIGHT...VFR. AFTERNOON SEABREEZES PROBABLE 
EACH AFTERNOON.
.THURSDAY...MOST LIKELY VFR. ISOLATED SHOWERS/THUNDERSTORMS 
POSSIBLE. AFTERNOON SEABREEZES PROBABLE.
.THURSDAY NIGHT...VFR.
.FRIDAY...MOST LIKELY VFR. E WINDS G15-20KT POSSIBLE. ISOLATED-
SCATTERED SHOWERS/THUNDERSTORMS POSSIBLE. 


NY Metro Terminal Aviation Weather Summary: (Explanation of Color Coding)
NOTE: All Wind Directions are TRUE (add 13 degrees for magnetic directions). Tail and Crosswind Calculations do account for the magnetic deviation of runways.

Click on the Airport Below for Specific Information at that Terminal

TAF Overview JFK TAF LGA TAF EWR TAF TEB TAF HPN TAF ISP TAF

Jump to AirSpace Impacts Section Condensed "lite" version of SPA page
**************************************************************************************
KJFK Terminal Weather: (Wind Directions Are True, Except Where Noted, ADD 13 degrees for Magnetic)

5MIN KJFK 302220Z 18011KT 10SM CLR 27/21 A3001 -70 69 
     1300 190/11 RMK AO2
5MIN KJFK 302215Z 18012KT 10SM CLR 27/21 A3001 -70 69 
     1300 190/12 RMK AO2
********************************************
****        MAGNETIC DIRECTIONS         ****
********************************************
KJFK 08/30/2015 22:35:00 GMT 190 11 KT
KJFK 08/30/2015 22:33:37 GMT 180 12 KT
KJFK 08/30/2015 22:31:37 GMT 180 10 KT
KJFK 08/30/2015 22:29:37 GMT 190 11 KT
KJFK 08/30/2015 22:27:37 GMT 180 11 KT
KJFK 08/30/2015 22:25:37 GMT 180 11 KT
KJFK 08/30/2015 22:23:37 GMT 180 12 KT
KJFK 08/30/2015 22:21:37 GMT 180 12 KT
KJFK 08/30/2015 22:19:37 GMT 180 12 KT
KJFK 08/30/2015 22:17:37 GMT 180 11 KT
SAUS70 KJFK 302200 RRF
METAR KJFK 302151Z 18012KT 10SM FEW050TCU BKN110 BKN250 27/21 A3002 RMK
     AO2 SLP166 TCU W-NW T02670206
FTUS41 KOKX 301940 AAB
TAFJFK
TAF AMD
KJFK 301940Z 3020/3124 17011KT P6SM SCT080 BKN250
     FM310200 21010KT P6SM BKN100
     FM310400 23008KT P6SM BKN100
     FM311100 25008KT P6SM SCT070 BKN250
     FM311700 24014KT P6SM BKN250=
KJFK Forecaster Comments Not Available at This Time
jfk

JFK Hourly Forecast Temperature (C)

JFK Hourly TMPS
**************************************************************************************
KLGA Terminal Weather: (Wind Directions Are True, Except Where Noted, ADD 13 degrees for Magnetic)

5MIN KLGA 302220Z 17009KT 10SM CLR 28/19 A2999 -40 58 
     1500 180/09 RMK AO2
5MIN KLGA 302215Z 18007KT 10SM CLR 28/19 A3000 -40 58 
     1500 190/07 RMK AO2
********************************************
****        MAGNETIC DIRECTIONS         ****
********************************************
KLGA 08/30/2015 22:35:57 GMT 200 08 KT
KLGA 08/30/2015 22:33:58 GMT 200 08 KT
KLGA 08/30/2015 22:31:58 GMT 200 09 KT
KLGA 08/30/2015 22:29:58 GMT 190 09 KT
KLGA 08/30/2015 22:27:58 GMT 190 10 KT
KLGA 08/30/2015 22:25:58 GMT 200 10 KT
KLGA 08/30/2015 22:23:57 GMT 200 11 KT
KLGA 08/30/2015 22:21:58 GMT 200 09 KT
KLGA 08/30/2015 22:19:59 GMT 190 08 KT
KLGA 08/30/2015 22:17:58 GMT 180 07 KT
SAUS70 KLGA 302200
METAR KLGA 302151Z 17011KT 10SM FEW036TCU SCT060 BKN170 BKN250 28/19
     A3000 RMK AO2 SLP160 TCU N AND W T02830194
FTUS80 KLGA 301942 AAA
KLGA 301940Z 3020/3118 18011KT P6SM FEW050 BKN250
     FM310200 22008KT P6SM BKN100
     FM310600 24007KT P6SM BKN100
     FM311300 27007KT P6SM SCT070 BKN250
KLGA Forecaster Comments Not Available at This Time
lga


**************************************************************************************

KEWR Terminal Weather: (Wind Directions Are True, Except Where Noted, ADD 13 degrees for Magnetic)

5MIN KEWR 302230Z 24008KT 10SM FEW060 SCT100 SCT180 
     BKN250 32/17 A3000 -40 40 1900 260/08 RMK AO2
5MIN KEWR 302225Z 24008KT 10SM FEW060 SCT100 SCT180 
     BKN250 31/17 A2999 -40 41 1800 260/08 RMK AO2
********************************************
****        MAGNETIC DIRECTIONS         ****
********************************************
KEWR 08/30/2015 22:35:30 GMT 250 08 KT
KEWR 08/30/2015 22:33:30 GMT 240 07 KT
KEWR 08/30/2015 22:31:30 GMT 260 07 KT
KEWR 08/30/2015 22:29:30 GMT 270 09 KT
KEWR 08/30/2015 22:27:30 GMT 250 08 KT
KEWR 08/30/2015 22:25:51 GMT 250 07 KT
KEWR 08/30/2015 22:23:30 GMT 270 06 KT
KEWR 08/30/2015 22:21:30 GMT 290 06 KT
KEWR 08/30/2015 22:19:30 GMT 280 07 KT
KEWR 08/30/2015 22:17:30 GMT 300 07 KT
SAUS70 KEWR 302200 RRA
METAR KEWR 302151Z VRB03KT 10SM FEW060 SCT100 SCT180 BKN250 31/19 A3000
     RMK AO2 SLP158 T03060194
FTUS41 KOKX 302218 AAC
TAFEWR
TAF AMD
KEWR 302218Z 3022/3124 25009KT P6SM SCT050 SCT100 BKN250
     FM310300 23009KT P6SM BKN100
     FM311100 25006KT P6SM SCT100 BKN250
     FM311400 27011KT P6SM BKN250
     FM311900 28013G18KT P6SM BKN250=
KEWR Forecaster Comments Not Available at This Time
ewr
Afternoon EWR Haze Potential Forecast: KEWR Haze Forecast Not Available at This Time
IS NOT AVAILABLE AT THIS TIME


******************************************************************************

KTEB Terminal Weather:
SAUS80 KTEB 302200
METAR KTEB 302151Z 15007KT 10SM FEW065 BKN110 29/18 A2999 RMK AO2 SLP155
     T02940178
FTUS31 KTEB 301942 AAA
KTEB 301940Z 3020/3118 18008KT P6SM FEW060 BKN250
     FM310600 VRB04KT P6SM BKN120
     FM311400 27008KT P6SM BKN250
KTEB Forecaster Comments Not Available at This Time
teb

 


**************************************************************************************

KHPN Terminal Weather:
SAUS70 KHPN 302200 RRB
METAR KHPN 302156Z 16006KT 10SM FEW060 BKN100 27/20 A3002 RMK AO2 SLP161
     T02720200
FTUS41 KHPN 301948 AAA
KHPN 301946Z 3020/3118 VRB03KT P6SM VCSH BKN080
     FM302300 VRB03KT P6SM BKN150
     FM311500 29006KT P6SM BKN250 AMD NOT SKED
KHPN Forecaster Comments Not Available at This Time
HPN


******************************************************************************

KISP Terminal Weather:
SAUS70 KISP 302200 RRC
METAR KISP 302156Z 20011KT 10SM FEW050 FEW100 SCT170 BKN260 26/19 A3001
     RMK AO2 SLP163 T02560194
FTUS41 KOKX 301940 AAA
TAFISP
TAF AMD
KISP 301940Z 3020/3118 19009KT P6SM FEW050 BKN250
     FM310200 22008KT P6SM BKN250
     FM310800 25008KT P6SM SCT100 BKN200=
KISP Forecaster Comments Not Available at This Time
ISP

 


ZNY SWAP Season Information

(ZNY SWAP STATEMENT) (Click for PDF File) (ZNY BRIEFING) (Click for PDF File)

*******************************************************
***        NY AIR ROUTE TRAFFIC CONTROL CENTER      ***
***                DAILY SWAP STATEMENT             ***
*******************************************************
- KNYC 291427
WRKSWP

SUNDAY,  AUGUST 30, 2015
SWAP IS PROBABLE AFT 18Z. 
ISOL TS ARE PSBL FM EXTREME SWRN ZBW THRU 
ZNY/ERN ZOB INTO THE MOUNTAINS OF ZDC. BEST CHANCE FOR ISOL TS IS 
VCY HNK-SLT. TS MAY HAVE VARYING IMPACTS FM J95 TO J6.

ADDT'L INFO: 
AZEZU-PAEPR-HANRI(L453-M201):  IMPACTS POSSIBLE. 
DITCH: ISOL IMPACT PSBL. 
EAST GATES:  NO IMPACTS EXPECTED.
TOMORROW MORNINGS SWAP OUTLOOK:  SWAP IS NOT EXPECTED.

$$
KS

N90 AirSpace Impacts

N90 ZNY Gate TSTM Forecast    SWAP Day One Forecast

SWAP Day One Forecast    SWAP Day Two Outlook

National Collaborative Convective Forecast Product (CCFP) Forecasts (Mar-Oct)

CAWS - Collaborative Aviation Weather Statement


Vertical Wind Profile
Untitled Document